sensor_id;sensor_type;location;lat;lon;timestamp;P1;durP1;ratioP1;P2;durP2;ratioP2
40611;SDS011;26317;44.894;20.286;2022-08-21T00:02:19;26.90;;;18.90;;
40611;SDS011;26317;44.894;20.286;2022-08-21T00:04:49;15.20;;;11.70;;
40611;SDS011;26317;44.894;20.286;2022-08-21T00:07:18;13.23;;;10.57;;
40611;SDS011;26317;44.894;20.286;2022-08-21T00:09:48;15.68;;;9.23;;
40611;SDS011;26317;44.894;20.286;2022-08-21T00:12:17;12.68;;;9.52;;
40611;SDS011;26317;44.894;20.286;2022-08-21T00:14:49;11.20;;;9.50;;
40611;SDS011;26317;44.894;20.286;2022-08-21T00:17:18;15.15;;;9.40;;
40611;SDS011;26317;44.894;20.286;2022-08-21T00:19:47;15.23;;;11.50;;
40611;SDS011;26317;44.894;20.286;2022-08-21T00:22:16;18.98;;;11.57;;
40611;SDS011;26317;44.894;20.286;2022-08-21T00:24:45;17.17;;;11.32;;
40611;SDS011;26317;44.894;20.286;2022-08-21T00:27:15;16.98;;;11.38;;
40611;SDS011;26317;44.894;20.286;2022-08-21T00:29:43;14.45;;;11.85;;
40611;SDS011;26317;44.894;20.286;2022-08-21T00:32:15;15.45;;;11.55;;
40611;SDS011;26317;44.894;20.286;2022-08-21T00:34:48;18.48;;;11.38;;
40611;SDS011;26317;44.894;20.286;2022-08-21T00:37:17;13.23;;;9.52;;
40611;SDS011;26317;44.894;20.286;2022-08-21T00:39:49;10.73;;;9.60;;
40611;SDS011;26317;44.894;20.286;2022-08-21T00:42:18;15.13;;;8.17;;
40611;SDS011;26317;44.894;20.286;2022-08-21T00:44:47;11.35;;;7.85;;
40611;SDS011;26317;44.894;20.286;2022-08-21T00:47:20;9.63;;;7.00;;
40611;SDS011;26317;44.894;20.286;2022-08-21T00:49:49;6.07;;;5.47;;
40611;SDS011;26317;44.894;20.286;2022-08-21T00:52:22;9.32;;;5.10;;
40611;SDS011;26317;44.894;20.286;2022-08-21T00:54:57;4.75;;;4.13;;
40611;SDS011;26317;44.894;20.286;2022-08-21T00:57:29;4.93;;;3.88;;
40611;SDS011;26317;44.894;20.286;2022-08-21T01:00:07;5.22;;;3.55;;
40611;SDS011;26317;44.894;20.286;2022-08-21T01:02:44;6.00;;;4.20;;
40611;SDS011;26317;44.894;20.286;2022-08-21T01:05:14;6.95;;;4.63;;
40611;SDS011;26317;44.894;20.286;2022-08-21T01:07:43;5.65;;;4.57;;
40611;SDS011;26317;44.894;20.286;2022-08-21T01:10:12;4.93;;;4.35;;
40611;SDS011;26317;44.894;20.286;2022-08-21T01:12:41;7.45;;;5.35;;
40611;SDS011;26317;44.894;20.286;2022-08-21T01:15:11;7.57;;;5.57;;
40611;SDS011;26317;44.894;20.286;2022-08-21T01:17:45;12.38;;;5.45;;
40611;SDS011;26317;44.894;20.286;2022-08-21T01:20:17;9.77;;;5.80;;
40611;SDS011;26317;44.894;20.286;2022-08-21T01:22:49;9.93;;;4.68;;
40611;SDS011;26317;44.894;20.286;2022-08-21T01:25:18;8.65;;;4.03;;
40611;SDS011;26317;44.894;20.286;2022-08-21T01:27:48;10.18;;;3.97;;
40611;SDS011;26317;44.894;20.286;2022-08-21T01:30:18;10.35;;;4.15;;
40611;SDS011;26317;44.894;20.286;2022-08-21T01:32:50;8.63;;;3.30;;
40611;SDS011;26317;44.894;20.286;2022-08-21T01:35:21;10.55;;;3.10;;
40611;SDS011;26317;44.894;20.286;2022-08-21T01:37:53;8.18;;;3.35;;
40611;SDS011;26317;44.894;20.286;2022-08-21T01:40:22;7.53;;;2.92;;
40611;SDS011;26317;44.894;20.286;2022-08-21T01:42:53;9.02;;;3.60;;
40611;SDS011;26317;44.894;20.286;2022-08-21T01:45:22;8.45;;;3.50;;
40611;SDS011;26317;44.894;20.286;2022-08-21T01:47:51;11.23;;;3.83;;
40611;SDS011;26317;44.894;20.286;2022-08-21T01:50:21;11.55;;;4.35;;
40611;SDS011;26317;44.894;20.286;2022-08-21T01:52:55;18.17;;;4.88;;
40611;SDS011;26317;44.894;20.286;2022-08-21T01:55:24;16.80;;;3.40;;
40611;SDS011;26317;44.894;20.286;2022-08-21T01:57:53;10.88;;;3.50;;
40611;SDS011;26317;44.894;20.286;2022-08-21T02:00:22;3.47;;;2.33;;
40611;SDS011;26317;44.894;20.286;2022-08-21T02:06:33;6.18;;;2.42;;
40611;SDS011;26317;44.894;20.286;2022-08-21T02:09:14;3.38;;;2.58;;
40611;SDS011;26317;44.894;20.286;2022-08-21T02:12:08;3.85;;;1.60;;
40611;SDS011;26317;44.894;20.286;2022-08-21T02:14:45;3.15;;;1.80;;
40611;SDS011;26317;44.894;20.286;2022-08-21T02:17:16;4.75;;;1.23;;
40611;SDS011;26317;44.894;20.286;2022-08-21T02:19:54;2.85;;;1.20;;
40611;SDS011;26317;44.894;20.286;2022-08-21T02:22:24;5.43;;;1.58;;
40611;SDS011;26317;44.894;20.286;2022-08-21T02:25:10;3.53;;;1.55;;
40611;SDS011;26317;44.894;20.286;2022-08-21T02:27:42;4.55;;;1.98;;
40611;SDS011;26317;44.894;20.286;2022-08-21T02:30:19;8.27;;;1.27;;
40611;SDS011;26317;44.894;20.286;2022-08-21T02:32:53;1.92;;;1.65;;
40611;SDS011;26317;44.894;20.286;2022-08-21T02:35:24;3.83;;;1.85;;
40611;SDS011;26317;44.894;20.286;2022-08-21T02:37:55;2.85;;;2.03;;
40611;SDS011;26317;44.894;20.286;2022-08-21T02:40:41;4.32;;;2.40;;
40611;SDS011;26317;44.894;20.286;2022-08-21T02:43:16;4.75;;;2.85;;
40611;SDS011;26317;44.894;20.286;2022-08-21T02:45:50;3.97;;;2.92;;
40611;SDS011;26317;44.894;20.286;2022-08-21T02:48:26;7.05;;;2.45;;
40611;SDS011;26317;44.894;20.286;2022-08-21T02:51:13;5.18;;;2.85;;
40611;SDS011;26317;44.894;20.286;2022-08-21T02:53:46;5.57;;;3.17;;
40611;SDS011;26317;44.894;20.286;2022-08-21T02:56:22;3.53;;;2.60;;
40611;SDS011;26317;44.894;20.286;2022-08-21T02:58:56;4.80;;;2.90;;
40611;SDS011;26317;44.894;20.286;2022-08-21T03:01:37;3.58;;;2.55;;
40611;SDS011;26317;44.894;20.286;2022-08-21T03:04:18;4.03;;;2.95;;
40611;SDS011;26317;44.894;20.286;2022-08-21T03:06:50;3.63;;;2.35;;
40611;SDS011;26317;44.894;20.286;2022-08-21T03:09:19;3.90;;;2.88;;
40611;SDS011;26317;44.894;20.286;2022-08-21T03:12:01;4.25;;;2.63;;
40611;SDS011;26317;44.894;20.286;2022-08-21T03:14:33;5.50;;;2.85;;
40611;SDS011;26317;44.894;20.286;2022-08-21T03:17:06;2.65;;;1.92;;
40611;SDS011;26317;44.894;20.286;2022-08-21T03:19:35;3.35;;;2.20;;
40611;SDS011;26317;44.894;20.286;2022-08-21T03:22:17;2.63;;;1.88;;
40611;SDS011;26317;44.894;20.286;2022-08-21T03:24:50;4.03;;;1.85;;
40611;SDS011;26317;44.894;20.286;2022-08-21T03:27:25;3.67;;;2.28;;
40611;SDS011;26317;44.894;20.286;2022-08-21T03:30:00;4.47;;;2.03;;
40611;SDS011;26317;44.894;20.286;2022-08-21T03:32:31;5.60;;;2.30;;
40611;SDS011;26317;44.894;20.286;2022-08-21T03:35:03;4.80;;;2.60;;
40611;SDS011;26317;44.894;20.286;2022-08-21T03:37:40;4.28;;;2.67;;
40611;SDS011;26317;44.894;20.286;2022-08-21T03:40:14;4.30;;;2.55;;
40611;SDS011;26317;44.894;20.286;2022-08-21T03:42:57;6.38;;;3.08;;
40611;SDS011;26317;44.894;20.286;2022-08-21T03:45:27;4.10;;;2.95;;
40611;SDS011;26317;44.894;20.286;2022-08-21T03:48:05;6.97;;;3.38;;
40611;SDS011;26317;44.894;20.286;2022-08-21T03:50:39;3.58;;;2.55;;
40611;SDS011;26317;44.894;20.286;2022-08-21T03:53:15;6.18;;;3.60;;
40611;SDS011;26317;44.894;20.286;2022-08-21T03:55:52;6.95;;;3.58;;
40611;SDS011;26317;44.894;20.286;2022-08-21T03:58:41;6.03;;;3.47;;
40611;SDS011;26317;44.894;20.286;2022-08-21T04:01:13;4.28;;;3.13;;
40611;SDS011;26317;44.894;20.286;2022-08-21T04:03:44;5.70;;;2.77;;
40611;SDS011;26317;44.894;20.286;2022-08-21T04:06:22;3.55;;;3.25;;
40611;SDS011;26317;44.894;20.286;2022-08-21T04:08:56;3.67;;;3.00;;
40611;SDS011;26317;44.894;20.286;2022-08-21T04:11:28;4.38;;;3.33;;
40611;SDS011;26317;44.894;20.286;2022-08-21T04:14:01;3.63;;;3.00;;
40611;SDS011;26317;44.894;20.286;2022-08-21T04:16:35;5.60;;;3.33;;
40611;SDS011;26317;44.894;20.286;2022-08-21T04:19:13;6.03;;;3.50;;
40611;SDS011;26317;44.894;20.286;2022-08-21T04:21:43;4.93;;;3.70;;
40611;SDS011;26317;44.894;20.286;2022-08-21T04:24:17;4.97;;;4.15;;
40611;SDS011;26317;44.894;20.286;2022-08-21T04:26:56;5.07;;;4.20;;
40611;SDS011;26317;44.894;20.286;2022-08-21T04:29:29;5.20;;;4.20;;
40611;SDS011;26317;44.894;20.286;2022-08-21T04:32:01;4.07;;;3.70;;
40611;SDS011;26317;44.894;20.286;2022-08-21T04:34:40;4.68;;;4.20;;
40611;SDS011;26317;44.894;20.286;2022-08-21T04:37:22;6.93;;;5.25;;
40611;SDS011;26317;44.894;20.286;2022-08-21T04:39:58;6.03;;;4.45;;
40611;SDS011;26317;44.894;20.286;2022-08-21T04:42:29;5.60;;;4.22;;
40611;SDS011;26317;44.894;20.286;2022-08-21T04:45:13;5.22;;;4.35;;
40611;SDS011;26317;44.894;20.286;2022-08-21T04:47:52;6.78;;;4.40;;
40611;SDS011;26317;44.894;20.286;2022-08-21T04:50:26;5.28;;;4.72;;
40611;SDS011;26317;44.894;20.286;2022-08-21T04:53:07;5.38;;;4.88;;
40611;SDS011;26317;44.894;20.286;2022-08-21T04:55:45;4.75;;;4.20;;
40611;SDS011;26317;44.894;20.286;2022-08-21T04:58:19;4.60;;;4.20;;
40611;SDS011;26317;44.894;20.286;2022-08-21T05:01:00;5.97;;;4.28;;
40611;SDS011;26317;44.894;20.286;2022-08-21T05:03:38;4.95;;;4.55;;
40611;SDS011;26317;44.894;20.286;2022-08-21T05:06:18;4.68;;;4.15;;
40611;SDS011;26317;44.894;20.286;2022-08-21T05:08:51;5.82;;;3.75;;
40611;SDS011;26317;44.894;20.286;2022-08-21T05:11:26;4.93;;;4.20;;
40611;SDS011;26317;44.894;20.286;2022-08-21T05:14:04;6.65;;;4.30;;
40611;SDS011;26317;44.894;20.286;2022-08-21T05:16:42;6.25;;;4.50;;
40611;SDS011;26317;44.894;20.286;2022-08-21T05:19:18;5.13;;;4.60;;
40611;SDS011;26317;44.894;20.286;2022-08-21T05:21:50;3.75;;;3.45;;
40611;SDS011;26317;44.894;20.286;2022-08-21T05:24:24;8.80;;;4.70;;
40611;SDS011;26317;44.894;20.286;2022-08-21T05:27:00;4.70;;;4.28;;
40611;SDS011;26317;44.894;20.286;2022-08-21T05:29:36;6.07;;;4.30;;
40611;SDS011;26317;44.894;20.286;2022-08-21T05:32:10;15.23;;;13.75;;
40611;SDS011;26317;44.894;20.286;2022-08-21T05:34:43;4.60;;;4.20;;
40611;SDS011;26317;44.894;20.286;2022-08-21T05:37:18;7.65;;;5.15;;
40611;SDS011;26317;44.894;20.286;2022-08-21T05:39:54;5.07;;;4.00;;
40611;SDS011;26317;44.894;20.286;2022-08-21T05:42:28;5.60;;;4.05;;
40611;SDS011;26317;44.894;20.286;2022-08-21T05:44:57;5.13;;;4.60;;
40611;SDS011;26317;44.894;20.286;2022-08-21T05:47:33;6.57;;;5.13;;
40611;SDS011;26317;44.894;20.286;2022-08-21T05:50:05;6.00;;;5.50;;
40611;SDS011;26317;44.894;20.286;2022-08-21T05:52:36;8.85;;;5.60;;
40611;SDS011;26317;44.894;20.286;2022-08-21T05:55:14;10.02;;;5.97;;
40611;SDS011;26317;44.894;20.286;2022-08-21T05:57:50;10.35;;;9.35;;
40611;SDS011;26317;44.894;20.286;2022-08-21T06:00:25;6.90;;;6.20;;
40611;SDS011;26317;44.894;20.286;2022-08-21T06:05:46;5.78;;;5.18;;
40611;SDS011;26317;44.894;20.286;2022-08-21T06:08:16;7.75;;;5.32;;
40611;SDS011;26317;44.894;20.286;2022-08-21T06:10:47;6.30;;;5.28;;
40611;SDS011;26317;44.894;20.286;2022-08-21T06:13:18;6.40;;;5.80;;
40611;SDS011;26317;44.894;20.286;2022-08-21T06:16:03;8.15;;;7.45;;
40611;SDS011;26317;44.894;20.286;2022-08-21T06:18:45;8.82;;;7.03;;
40611;SDS011;26317;44.894;20.286;2022-08-21T06:21:21;5.93;;;5.35;;
40611;SDS011;26317;44.894;20.286;2022-08-21T06:24:00;11.05;;;6.38;;
40611;SDS011;26317;44.894;20.286;2022-08-21T06:26:32;10.70;;;9.07;;
40611;SDS011;26317;44.894;20.286;2022-08-21T06:29:03;15.20;;;11.00;;
40611;SDS011;26317;44.894;20.286;2022-08-21T06:31:38;9.45;;;7.35;;
40611;SDS011;26317;44.894;20.286;2022-08-21T06:34:10;6.30;;;5.70;;
40611;SDS011;26317;44.894;20.286;2022-08-21T06:36:39;7.93;;;7.18;;
40611;SDS011;26317;44.894;20.286;2022-08-21T06:39:09;7.10;;;6.40;;
40611;SDS011;26317;44.894;20.286;2022-08-21T06:41:38;7.72;;;6.93;;
40611;SDS011;26317;44.894;20.286;2022-08-21T06:44:16;8.57;;;6.20;;
40611;SDS011;26317;44.894;20.286;2022-08-21T06:46:53;9.10;;;7.70;;
40611;SDS011;26317;44.894;20.286;2022-08-21T06:49:31;7.80;;;6.63;;
40611;SDS011;26317;44.894;20.286;2022-08-21T06:52:02;8.32;;;6.93;;
40611;SDS011;26317;44.894;20.286;2022-08-21T06:54:33;7.82;;;6.75;;
40611;SDS011;26317;44.894;20.286;2022-08-21T06:57:10;8.93;;;7.32;;
40611;SDS011;26317;44.894;20.286;2022-08-21T06:59:44;8.32;;;7.47;;
40611;SDS011;26317;44.894;20.286;2022-08-21T07:02:17;8.75;;;6.55;;
40611;SDS011;26317;44.894;20.286;2022-08-21T07:05:02;7.05;;;6.38;;
40611;SDS011;26317;44.894;20.286;2022-08-21T07:07:38;8.65;;;6.90;;
40611;SDS011;26317;44.894;20.286;2022-08-21T07:10:14;7.57;;;6.80;;
40611;SDS011;26317;44.894;20.286;2022-08-21T07:12:46;8.52;;;6.72;;
40611;SDS011;26317;44.894;20.286;2022-08-21T07:15:21;7.65;;;6.85;;
40611;SDS011;26317;44.894;20.286;2022-08-21T07:17:55;6.40;;;5.13;;
40611;SDS011;26317;44.894;20.286;2022-08-21T07:20:33;5.25;;;3.25;;
40611;SDS011;26317;44.894;20.286;2022-08-21T07:23:07;6.35;;;4.40;;
40611;SDS011;26317;44.894;20.286;2022-08-21T07:25:43;5.53;;;3.90;;
40611;SDS011;26317;44.894;20.286;2022-08-21T07:28:16;4.57;;;3.78;;
40611;SDS011;26317;44.894;20.286;2022-08-21T07:30:50;7.03;;;4.18;;
40611;SDS011;26317;44.894;20.286;2022-08-21T07:33:28;4.93;;;4.53;;
40611;SDS011;26317;44.894;20.286;2022-08-21T07:36:16;9.05;;;4.88;;
40611;SDS011;26317;44.894;20.286;2022-08-21T07:38:53;6.82;;;6.13;;
40611;SDS011;26317;44.894;20.286;2022-08-21T07:41:27;6.97;;;5.55;;
40611;SDS011;26317;44.894;20.286;2022-08-21T07:44:04;8.35;;;7.05;;
40611;SDS011;26317;44.894;20.286;2022-08-21T07:46:41;7.25;;;6.53;;
40611;SDS011;26317;44.894;20.286;2022-08-21T07:49:11;8.25;;;7.53;;
40611;SDS011;26317;44.894;20.286;2022-08-21T07:51:44;9.50;;;7.87;;
40611;SDS011;26317;44.894;20.286;2022-08-21T07:54:16;10.38;;;7.93;;
40611;SDS011;26317;44.894;20.286;2022-08-21T07:56:45;13.00;;;9.35;;
40611;SDS011;26317;44.894;20.286;2022-08-21T07:59:24;10.23;;;9.23;;
40611;SDS011;26317;44.894;20.286;2022-08-21T08:02:01;11.35;;;10.10;;
40611;SDS011;26317;44.894;20.286;2022-08-21T08:04:40;12.23;;;10.68;;
40611;SDS011;26317;44.894;20.286;2022-08-21T08:07:12;11.97;;;9.73;;
40611;SDS011;26317;44.894;20.286;2022-08-21T08:09:44;11.50;;;10.40;;
40611;SDS011;26317;44.894;20.286;2022-08-21T08:12:23;15.27;;;10.40;;
40611;SDS011;26317;44.894;20.286;2022-08-21T08:15:01;15.65;;;11.18;;
40611;SDS011;26317;44.894;20.286;2022-08-21T08:17:35;12.60;;;11.30;;
40611;SDS011;26317;44.894;20.286;2022-08-21T08:20:05;16.55;;;13.63;;
40611;SDS011;26317;44.894;20.286;2022-08-21T08:22:50;16.30;;;14.70;;
40611;SDS011;26317;44.894;20.286;2022-08-21T08:25:24;17.17;;;15.68;;
40611;SDS011;26317;44.894;20.286;2022-08-21T08:27:54;18.83;;;16.85;;
40611;SDS011;26317;44.894;20.286;2022-08-21T08:30:23;19.17;;;17.38;;
40611;SDS011;26317;44.894;20.286;2022-08-21T08:32:55;20.27;;;18.33;;
40611;SDS011;26317;44.894;20.286;2022-08-21T08:35:36;21.30;;;19.45;;
40611;SDS011;26317;44.894;20.286;2022-08-21T08:38:31;21.23;;;19.17;;
40611;SDS011;26317;44.894;20.286;2022-08-21T08:41:04;21.75;;;19.75;;
40611;SDS011;26317;44.894;20.286;2022-08-21T08:46:34;16.40;;;14.77;;
40611;SDS011;26317;44.894;20.286;2022-08-21T08:49:15;17.00;;;15.60;;
40611;SDS011;26317;44.894;20.286;2022-08-21T08:51:51;17.75;;;16.15;;
40611;SDS011;26317;44.894;20.286;2022-08-21T08:54:38;16.00;;;14.70;;
40611;SDS011;26317;44.894;20.286;2022-08-21T08:57:18;13.95;;;12.75;;
40611;SDS011;26317;44.894;20.286;2022-08-21T08:59:52;16.42;;;15.02;;
40611;SDS011;26317;44.894;20.286;2022-08-21T09:05:19;11.30;;;10.40;;
40611;SDS011;26317;44.894;20.286;2022-08-21T09:08:09;12.55;;;11.45;;
40611;SDS011;26317;44.894;20.286;2022-08-21T09:13:46;12.55;;;11.40;;
40611;SDS011;26317;44.894;20.286;2022-08-21T09:16:30;11.98;;;10.88;;
40611;SDS011;26317;44.894;20.286;2022-08-21T09:19:17;12.15;;;10.70;;
40611;SDS011;26317;44.894;20.286;2022-08-21T09:22:13;10.68;;;9.60;;
40611;SDS011;26317;44.894;20.286;2022-08-21T09:24:52;9.15;;;8.40;;
40611;SDS011;26317;44.894;20.286;2022-08-21T09:27:37;9.23;;;8.40;;
40611;SDS011;26317;44.894;20.286;2022-08-21T09:30:12;8.13;;;7.45;;
40611;SDS011;26317;44.894;20.286;2022-08-21T09:32:49;7.78;;;7.15;;
40611;SDS011;26317;44.894;20.286;2022-08-21T09:35:25;8.05;;;7.30;;
40611;SDS011;26317;44.894;20.286;2022-08-21T09:37:55;7.63;;;6.93;;
40611;SDS011;26317;44.894;20.286;2022-08-21T09:40:35;8.13;;;7.32;;
40611;SDS011;26317;44.894;20.286;2022-08-21T09:43:16;8.07;;;7.38;;
40611;SDS011;26317;44.894;20.286;2022-08-21T09:46:01;7.97;;;7.28;;
40611;SDS011;26317;44.894;20.286;2022-08-21T09:48:46;8.63;;;7.82;;
40611;SDS011;26317;44.894;20.286;2022-08-21T09:51:23;8.18;;;7.38;;
40611;SDS011;26317;44.894;20.286;2022-08-21T09:53:55;8.25;;;7.35;;
40611;SDS011;26317;44.894;20.286;2022-08-21T09:56:39;8.05;;;7.30;;
40611;SDS011;26317;44.894;20.286;2022-08-21T09:59:40;8.98;;;7.20;;
40611;SDS011;26317;44.894;20.286;2022-08-21T10:02:28;7.75;;;5.45;;
40611;SDS011;26317;44.894;20.286;2022-08-21T10:05:15;8.45;;;7.10;;
40611;SDS011;26317;44.894;20.286;2022-08-21T10:07:50;7.15;;;6.13;;
40611;SDS011;26317;44.894;20.286;2022-08-21T10:10:36;6.90;;;6.15;;
40611;SDS011;26317;44.894;20.286;2022-08-21T10:13:14;7.20;;;6.60;;
40611;SDS011;26317;44.894;20.286;2022-08-21T10:16:05;5.93;;;5.43;;
40611;SDS011;26317;44.894;20.286;2022-08-21T10:18:54;5.78;;;5.20;;
40611;SDS011;26317;44.894;20.286;2022-08-21T10:21:35;6.95;;;4.78;;
40611;SDS011;26317;44.894;20.286;2022-08-21T10:24:20;5.50;;;5.00;;
40611;SDS011;26317;44.894;20.286;2022-08-21T10:27:09;4.93;;;4.47;;
40611;SDS011;26317;44.894;20.286;2022-08-21T10:29:56;5.03;;;4.10;;
40611;SDS011;26317;44.894;20.286;2022-08-21T10:35:37;6.68;;;4.30;;
40611;SDS011;26317;44.894;20.286;2022-08-21T10:41:39;5.00;;;3.55;;
40611;SDS011;26317;44.894;20.286;2022-08-21T10:44:22;4.18;;;3.28;;
40611;SDS011;26317;44.894;20.286;2022-08-21T10:47:02;4.43;;;3.30;;
40611;SDS011;26317;44.894;20.286;2022-08-21T10:49:56;4.88;;;2.92;;
40611;SDS011;26317;44.894;20.286;2022-08-21T10:52:49;5.10;;;3.22;;
40611;SDS011;26317;44.894;20.286;2022-08-21T10:55:48;3.45;;;2.65;;
40611;SDS011;26317;44.894;20.286;2022-08-21T10:58:28;3.88;;;3.30;;
40611;SDS011;26317;44.894;20.286;2022-08-21T11:01:05;3.67;;;3.38;;
40611;SDS011;26317;44.894;20.286;2022-08-21T11:03:45;6.43;;;4.05;;
40611;SDS011;26317;44.894;20.286;2022-08-21T11:06:33;6.47;;;4.28;;
40611;SDS011;26317;44.894;20.286;2022-08-21T11:09:13;5.82;;;5.28;;
40611;SDS011;26317;44.894;20.286;2022-08-21T11:11:52;6.35;;;5.75;;
40611;SDS011;26317;44.894;20.286;2022-08-21T11:14:30;7.38;;;6.25;;
40611;SDS011;26317;44.894;20.286;2022-08-21T11:17:07;7.00;;;6.25;;
40611;SDS011;26317;44.894;20.286;2022-08-21T11:19:43;8.95;;;7.57;;
40611;SDS011;26317;44.894;20.286;2022-08-21T11:22:35;9.93;;;7.50;;
40611;SDS011;26317;44.894;20.286;2022-08-21T11:25:20;10.93;;;8.45;;
40611;SDS011;26317;44.894;20.286;2022-08-21T11:28:22;8.63;;;7.85;;
40611;SDS011;26317;44.894;20.286;2022-08-21T11:31:01;9.60;;;8.60;;
40611;SDS011;26317;44.894;20.286;2022-08-21T11:33:57;12.63;;;9.75;;
40611;SDS011;26317;44.894;20.286;2022-08-21T11:36:42;11.00;;;9.57;;
40611;SDS011;26317;44.894;20.286;2022-08-21T11:39:24;13.32;;;10.18;;
40611;SDS011;26317;44.894;20.286;2022-08-21T11:42:05;11.73;;;10.45;;
40611;SDS011;26317;44.894;20.286;2022-08-21T11:44:47;13.75;;;10.57;;
40611;SDS011;26317;44.894;20.286;2022-08-21T11:47:29;12.75;;;10.75;;
40611;SDS011;26317;44.894;20.286;2022-08-21T11:50:13;10.27;;;9.38;;
40611;SDS011;26317;44.894;20.286;2022-08-21T11:52:44;11.43;;;10.00;;
40611;SDS011;26317;44.894;20.286;2022-08-21T11:58:18;12.50;;;11.30;;
40611;SDS011;26317;44.894;20.286;2022-08-21T12:00:55;12.35;;;11.10;;
40611;SDS011;26317;44.894;20.286;2022-08-21T12:03:36;14.38;;;13.07;;
40611;SDS011;26317;44.894;20.286;2022-08-21T12:06:13;15.38;;;13.85;;
40611;SDS011;26317;44.894;20.286;2022-08-21T12:08:57;16.10;;;14.40;;
40611;SDS011;26317;44.894;20.286;2022-08-21T12:11:43;16.67;;;14.93;;
40611;SDS011;26317;44.894;20.286;2022-08-21T12:14:17;14.70;;;13.30;;
40611;SDS011;26317;44.894;20.286;2022-08-21T12:16:50;16.25;;;14.27;;
40611;SDS011;26317;44.894;20.286;2022-08-21T12:19:37;14.10;;;12.85;;
40611;SDS011;26317;44.894;20.286;2022-08-21T12:22:10;16.50;;;15.00;;
40611;SDS011;26317;44.894;20.286;2022-08-21T12:24:49;16.95;;;15.35;;
40611;SDS011;26317;44.894;20.286;2022-08-21T12:27:44;17.77;;;15.95;;
40611;SDS011;26317;44.894;20.286;2022-08-21T12:30:32;16.15;;;14.52;;
40611;SDS011;26317;44.894;20.286;2022-08-21T12:33:17;12.55;;;11.45;;
40611;SDS011;26317;44.894;20.286;2022-08-21T12:35:52;10.75;;;9.75;;
40611;SDS011;26317;44.894;20.286;2022-08-21T12:38:41;12.52;;;10.70;;
40611;SDS011;26317;44.894;20.286;2022-08-21T12:41:25;7.50;;;6.80;;
40611;SDS011;26317;44.894;20.286;2022-08-21T12:44:04;7.15;;;6.10;;
40611;SDS011;26317;44.894;20.286;2022-08-21T12:46:42;6.55;;;6.05;;
40611;SDS011;26317;44.894;20.286;2022-08-21T12:49:18;8.43;;;7.72;;
40611;SDS011;26317;44.894;20.286;2022-08-21T12:51:57;8.75;;;8.00;;
40611;SDS011;26317;44.894;20.286;2022-08-21T12:54:42;8.10;;;7.40;;
40611;SDS011;26317;44.894;20.286;2022-08-21T12:57:19;8.55;;;7.85;;
40611;SDS011;26317;44.894;20.286;2022-08-21T13:00:03;7.78;;;6.47;;
40611;SDS011;26317;44.894;20.286;2022-08-21T13:02:43;8.02;;;7.32;;
40611;SDS011;26317;44.894;20.286;2022-08-21T13:05:27;8.57;;;7.85;;
40611;SDS011;26317;44.894;20.286;2022-08-21T13:08:03;8.85;;;8.15;;
40611;SDS011;26317;44.894;20.286;2022-08-21T13:10:39;7.75;;;7.13;;
40611;SDS011;26317;44.894;20.286;2022-08-21T13:13:11;8.63;;;7.93;;
40611;SDS011;26317;44.894;20.286;2022-08-21T13:15:56;8.77;;;8.02;;
40611;SDS011;26317;44.894;20.286;2022-08-21T13:18:32;7.68;;;6.97;;
40611;SDS011;26317;44.894;20.286;2022-08-21T13:21:21;8.98;;;7.25;;
40611;SDS011;26317;44.894;20.286;2022-08-21T13:24:15;7.07;;;6.47;;
40611;SDS011;26317;44.894;20.286;2022-08-21T13:26:57;7.40;;;6.80;;
40611;SDS011;26317;44.894;20.286;2022-08-21T13:29:34;6.63;;;5.85;;
40611;SDS011;26317;44.894;20.286;2022-08-21T13:32:13;7.80;;;7.13;;
40611;SDS011;26317;44.894;20.286;2022-08-21T13:34:54;7.18;;;6.57;;
40611;SDS011;26317;44.894;20.286;2022-08-21T13:37:25;6.22;;;5.72;;
40611;SDS011;26317;44.894;20.286;2022-08-21T13:39:58;5.18;;;4.78;;
40611;SDS011;26317;44.894;20.286;2022-08-21T13:42:43;6.88;;;5.60;;
40611;SDS011;26317;44.894;20.286;2022-08-21T13:45:24;4.63;;;4.18;;
40611;SDS011;26317;44.894;20.286;2022-08-21T13:48:02;5.50;;;4.80;;
40611;SDS011;26317;44.894;20.286;2022-08-21T13:50:34;5.32;;;4.00;;
40611;SDS011;26317;44.894;20.286;2022-08-21T13:53:18;4.70;;;3.35;;
40611;SDS011;26317;44.894;20.286;2022-08-21T13:55:56;4.60;;;4.25;;
40611;SDS011;26317;44.894;20.286;2022-08-21T13:58:41;3.80;;;3.50;;
40611;SDS011;26317;44.894;20.286;2022-08-21T14:01:20;4.78;;;4.32;;
40611;SDS011;26317;44.894;20.286;2022-08-21T14:04:15;3.90;;;3.60;;
40611;SDS011;26317;44.894;20.286;2022-08-21T14:06:51;4.97;;;3.72;;
40611;SDS011;26317;44.894;20.286;2022-08-21T14:09:26;4.32;;;3.38;;
40611;SDS011;26317;44.894;20.286;2022-08-21T14:12:02;3.80;;;3.50;;
40611;SDS011;26317;44.894;20.286;2022-08-21T14:14:49;4.15;;;3.85;;
40611;SDS011;26317;44.894;20.286;2022-08-21T14:17:29;5.07;;;4.53;;
40611;SDS011;26317;44.894;20.286;2022-08-21T14:23:03;6.05;;;5.55;;
40611;SDS011;26317;44.894;20.286;2022-08-21T14:25:38;6.40;;;5.78;;
40611;SDS011;26317;44.894;20.286;2022-08-21T14:28:15;7.18;;;6.57;;
40611;SDS011;26317;44.894;20.286;2022-08-21T14:30:57;7.57;;;6.88;;
40611;SDS011;26317;44.894;20.286;2022-08-21T14:33:40;7.35;;;6.75;;
40611;SDS011;26317;44.894;20.286;2022-08-21T14:36:21;7.95;;;6.65;;
40611;SDS011;26317;44.894;20.286;2022-08-21T14:38:51;7.60;;;6.90;;
40611;SDS011;26317;44.894;20.286;2022-08-21T14:41:27;8.15;;;7.45;;
40611;SDS011;26317;44.894;20.286;2022-08-21T14:44:13;8.63;;;7.80;;
40611;SDS011;26317;44.894;20.286;2022-08-21T14:46:46;9.32;;;8.40;;
40611;SDS011;26317;44.894;20.286;2022-08-21T14:49:16;8.70;;;7.88;;
40611;SDS011;26317;44.894;20.286;2022-08-21T14:51:49;8.70;;;8.00;;
40611;SDS011;26317;44.894;20.286;2022-08-21T14:54:23;9.30;;;8.43;;
40611;SDS011;26317;44.894;20.286;2022-08-21T14:56:54;9.02;;;8.13;;
40611;SDS011;26317;44.894;20.286;2022-08-21T14:59:26;9.30;;;8.40;;
40611;SDS011;26317;44.894;20.286;2022-08-21T15:02:00;9.43;;;8.52;;
40611;SDS011;26317;44.894;20.286;2022-08-21T15:04:39;9.25;;;8.35;;
40611;SDS011;26317;44.894;20.286;2022-08-21T15:07:13;9.60;;;8.13;;
40611;SDS011;26317;44.894;20.286;2022-08-21T15:09:44;8.05;;;7.20;;
40611;SDS011;26317;44.894;20.286;2022-08-21T15:12:19;8.98;;;8.15;;
40611;SDS011;26317;44.894;20.286;2022-08-21T15:14:54;9.70;;;8.82;;
40611;SDS011;26317;44.894;20.286;2022-08-21T15:17:28;11.15;;;9.43;;
40611;SDS011;26317;44.894;20.286;2022-08-21T15:19:59;10.80;;;9.73;;
40611;SDS011;26317;44.894;20.286;2022-08-21T15:22:33;11.45;;;10.30;;
40611;SDS011;26317;44.894;20.286;2022-08-21T15:25:04;12.80;;;11.57;;
40611;SDS011;26317;44.894;20.286;2022-08-21T15:27:46;13.75;;;12.30;;
40611;SDS011;26317;44.894;20.286;2022-08-21T15:30:18;12.38;;;11.13;;
40611;SDS011;26317;44.894;20.286;2022-08-21T15:32:51;12.15;;;10.95;;
40611;SDS011;26317;44.894;20.286;2022-08-21T15:35:23;11.35;;;10.25;;
40611;SDS011;26317;44.894;20.286;2022-08-21T15:38:05;11.88;;;10.52;;
40611;SDS011;26317;44.894;20.286;2022-08-21T15:40:36;10.88;;;9.88;;
40611;SDS011;26317;44.894;20.286;2022-08-21T15:43:11;11.07;;;10.07;;
40611;SDS011;26317;44.894;20.286;2022-08-21T15:45:57;12.90;;;9.43;;
40611;SDS011;26317;44.894;20.286;2022-08-21T15:48:40;10.05;;;8.90;;
40611;SDS011;26317;44.894;20.286;2022-08-21T15:51:22;11.05;;;9.30;;
40611;SDS011;26317;44.894;20.286;2022-08-21T15:54:04;9.25;;;8.30;;